New Shoreham, Rhode Island
Current Conditions -  °F | °C
As of 2:35 PM on Friday 28 Nov 2014 (Local Time) from KBID Reporting Station
Few Clouds Few Clouds  
Wind Chill: 29°   Ceiling: Unl
Heat Index: 37°   Visibility: 10mi
Dew Point: 18°   Wind: 13mph
Humidity: 45%   Direction: 340°NNW
Pressure: 30.07"   Gusts: 20mph
Location:  41.1768°N, 71.5785°W
Report Text: KBID 281935Z AUTO 34011G17KT 10SM FEW043 03/M08 A3007 RMK AO1
Loading
Personal Weather Stations






























Interactive Weather Map New forecast layout! Learn more

10-Day Weather Forecast

Advertisements
Track Severe Weather on mobile